Time;durP1;ratioP1;P1;durP2;ratioP2;P2;SDS_P1;SDS_P2;PMS_P1;PMS_P2;Temp;Humidity;BMP_temperature;BMP_pressure;BME280_temperature;BME280_humidity;BME280_pressure;Samples;Min_cycle;Max_cycle;Signal;HPM_P1;HPM_P2
2021/08/21 00:01:51;;;;;;;6.50;3.67;;;;;;;10.64;100.00;100870.28;4971121;28;20039;-80
2021/08/21 00:04:16;;;;;;;8.40;4.05;;;;;;;10.52;100.00;100865.25;4971751;28;20039;-80
2021/08/21 00:06:42;;;;;;;7.78;3.85;;;;;;;10.50;100.00;100862.69;4971492;29;20023;-79
2021/08/21 00:09:08;;;;;;;11.88;4.05;;;;;;;10.50;100.00;100872.19;4970899;29;20027;-79
2021/08/21 00:11:33;;;;;;;8.30;4.13;;;;;;;10.50;100.00;100872.19;4971327;28;20057;-80
2021/08/21 00:13:58;;;;;;;6.90;3.60;;;;;;;10.53;100.00;100872.16;4971910;28;20362;-79
2021/08/21 00:16:24;;;;;;;7.82;4.03;;;;;;;10.49;100.00;100880.84;4964761;29;20023;-80
2021/08/21 00:18:49;;;;;;;7.93;4.18;;;;;;;10.44;100.00;100882.69;4965360;28;20046;-80
2021/08/21 00:21:14;;;;;;;9.27;3.97;;;;;;;10.46;100.00;100875.72;4964352;28;20555;-79
2021/08/21 00:23:41;;;;;;;10.57;4.30;;;;;;;10.41;100.00;100877.53;4964380;28;20141;-80
2021/08/21 00:26:07;;;;;;;10.23;4.63;;;;;;;10.41;100.00;100874.94;4964367;28;20047;-79
2021/08/21 00:28:32;;;;;;;8.05;4.13;;;;;;;10.33;100.00;100873.28;4964802;28;20078;-80
2021/08/21 00:30:57;;;;;;;11.32;5.10;;;;;;;10.35;100.00;100874.13;4964268;28;20031;-79
2021/08/21 00:33:22;;;;;;;11.05;4.93;;;;;;;10.36;100.00;100878.41;4962619;29;20023;-80
2021/08/21 00:35:48;;;;;;;10.07;4.85;;;;;;;10.36;100.00;100881.00;4964093;28;20035;-79
2021/08/21 00:38:13;;;;;;;10.27;5.07;;;;;;;10.40;100.00;100875.78;4962123;29;20030;-79
2021/08/21 00:40:38;;;;;;;9.80;3.95;;;;;;;10.44;100.00;100887.84;4962266;28;20042;-79
2021/08/21 00:43:04;;;;;;;9.75;4.45;;;;;;;10.26;100.00;100884.59;4962973;29;20369;-79
2021/08/21 00:45:29;;;;;;;10.65;4.22;;;;;;;10.27;100.00;100885.44;4964095;28;20023;-80
2021/08/21 00:47:55;;;;;;;8.80;4.53;;;;;;;10.22;100.00;100882.91;4962079;29;20027;-80
2021/08/21 00:50:20;;;;;;;13.77;7.35;;;;;;;10.24;100.00;100880.28;4963974;28;20074;-80
2021/08/21 00:52:45;;;;;;;9.02;4.93;;;;;;;10.36;100.00;100883.59;4962483;29;20051;-80
2021/08/21 00:55:11;;;;;;;12.02;5.55;;;;;;;10.26;100.00;100874.22;4962974;29;20024;-80
2021/08/21 00:57:36;;;;;;;12.95;5.15;;;;;;;10.20;100.00;100878.59;4962466;29;20026;-80
2021/08/21 01:00:04;;;;;;;8.27;4.72;;;;;;;10.12;100.00;100878.66;4962883;28;20118;-80
2021/08/21 01:02:31;;;;;;;9.25;4.57;;;;;;;10.17;100.00;100881.22;4961552;28;20031;-80
2021/08/21 01:04:57;;;;;;;9.05;5.07;;;;;;;10.19;100.00;100884.63;4963497;28;20074;-80
2021/08/21 01:07:28;;;;;;;12.32;4.95;;;;;;;10.18;100.00;100885.53;4961919;29;20023;-80
2021/08/21 01:09:54;;;;;;;11.90;5.38;;;;;;;10.10;100.00;100883.88;4961157;29;20077;-80
2021/08/21 01:12:21;;;;;;;10.15;4.60;;;;;;;10.09;100.00;100891.66;4962525;28;20035;-80
2021/08/21 01:14:49;;;;;;;12.05;4.50;;;;;;;10.00;100.00;100887.44;4961563;29;20023;-80
2021/08/21 01:17:17;;;;;;;9.52;4.55;;;;;;;9.96;100.00;100890.09;4961795;29;20027;-80
2021/08/21 01:19:47;;;;;;;8.43;4.07;;;;;;;9.97;100.00;100881.44;4961760;28;20082;-80
2021/08/21 01:22:19;;;;;;;10.00;4.10;;;;;;;9.94;100.00;100877.13;4960366;28;20024;-80
2021/08/21 01:24:46;;;;;;;9.10;4.28;;;;;;;10.02;100.00;100887.44;4963138;28;20024;-80
2021/08/21 01:27:21;;;;;;;10.10;4.40;;;;;;;10.01;100.00;100876.22;4960966;29;20042;-80
2021/08/21 01:29:47;;;;;;;13.18;4.68;;;;;;;9.96;100.00;100870.22;4961284;29;20114;-80
2021/08/21 01:32:13;;;;;;;8.23;4.00;;;;;;;9.90;100.00;100876.31;4960863;28;20077;-79
2021/08/21 01:34:38;;;;;;;10.65;4.22;;;;;;;9.95;100.00;100873.69;4961332;29;20023;-79
2021/08/21 01:37:04;;;;;;;8.63;3.95;;;;;;;9.93;100.00;100869.41;4960781;29;20035;-80
2021/08/21 01:39:29;;;;;;;7.22;4.05;;;;;;;10.01;100.00;100873.63;4961667;29;20034;-80
2021/08/21 01:41:54;;;;;;;12.25;4.38;;;;;;;9.91;100.00;100869.41;4962234;28;20083;-80
2021/08/21 01:44:19;;;;;;;9.00;4.07;;;;;;;9.88;100.00;100878.09;4960822;28;20023;-80
2021/08/21 01:46:48;;;;;;;8.45;4.00;;;;;;;9.92;100.00;100873.72;4962279;28;20035;-80
2021/08/21 01:49:13;;;;;;;10.45;4.75;;;;;;;9.88;100.00;100875.50;4959721;29;20023;-80
2021/08/21 01:51:41;;;;;;;9.30;4.90;;;;;;;9.85;100.00;100875.53;4960153;28;20034;-80
2021/08/21 01:54:08;;;;;;;9.07;4.85;;;;;;;9.89;100.00;100866.84;4961439;28;20029;-80
2021/08/21 01:56:46;;;;;;;11.25;4.88;;;;;;;9.83;100.00;100871.22;4960981;28;20046;-80
2021/08/21 01:59:33;;;;;;;11.15;4.63;;;;;;;9.93;100.00;100859.03;4960679;28;20031;-80
2021/08/21 02:01:59;;;;;;;8.13;4.80;;;;;;;9.91;100.00;100862.50;4959068;28;20031;-80
2021/08/21 02:04:25;;;;;;;12.07;4.15;;;;;;;9.91;100.00;100859.03;4959490;29;20106;-80
2021/08/21 02:06:51;;;;;;;9.05;4.20;;;;;;;10.02;100.00;100866.69;4961529;28;20069;-80
2021/08/21 02:09:19;;;;;;;8.98;4.32;;;;;;;9.85;100.00;100867.75;4960393;28;20034;-80
2021/08/21 02:11:46;;;;;;;12.60;4.57;;;;;;;9.82;100.00;100870.38;4960729;28;20023;-80
2021/08/21 02:14:13;;;;;;;12.43;5.20;;;;;;;9.86;100.00;100873.78;4960452;28;20539;-80
2021/08/21 02:16:39;;;;;;;9.80;5.07;;;;;;;9.80;100.00;100874.69;4959739;29;20122;-80
2021/08/21 02:19:04;;;;;;;12.63;5.20;;;;;;;9.77;100.00;100866.97;4959169;29;20062;-80
2021/08/21 02:21:30;;;;;;;15.45;5.65;;;;;;;9.77;100.00;100874.72;4960627;28;20027;-80
2021/08/21 02:23:58;;;;;;;10.80;5.00;;;;;;;9.81;100.00;100875.56;4959058;28;20028;-80
2021/08/21 02:26:24;;;;;;;10.00;4.30;;;;;;;9.85;100.00;100877.22;4959214;29;20070;-80
2021/08/21 02:28:50;;;;;;;11.52;4.93;;;;;;;9.85;100.00;100877.22;4958603;29;20031;-80
2021/08/21 02:31:15;;;;;;;11.15;4.93;;;;;;;9.79;100.00;100873.00;4959975;28;20027;-80
2021/08/21 02:33:40;;;;;;;10.02;5.25;;;;;;;9.91;100.00;100878.03;4958866;29;20066;-80
2021/08/21 02:36:05;;;;;;;9.15;4.53;;;;;;;9.93;100.00;100869.41;4958619;29;20050;-80
2021/08/21 02:38:31;;;;;;;9.35;5.13;;;;;;;9.91;100.00;100870.28;4957758;28;20027;-80
2021/08/21 02:40:56;;;;;;;9.45;4.57;;;;;;;9.81;100.00;100873.81;4957718;28;20027;-80
2021/08/21 02:43:22;;;;;;;12.80;5.93;;;;;;;9.80;100.00;100866.94;4959776;28;20061;-80
2021/08/21 02:45:48;;;;;;;8.98;4.93;;;;;;;9.88;100.00;100867.72;4958302;29;20024;-80
2021/08/21 02:48:13;;;;;;;10.70;4.82;;;;;;;9.88;100.00;100870.31;4957637;29;20399;-80
2021/08/21 02:50:38;;;;;;;11.32;5.13;;;;;;;9.86;100.00;100864.28;4958242;28;20023;-80
2021/08/21 02:53:04;;;;;;;9.85;4.35;;;;;;;9.75;100.00;100876.47;4959399;28;20034;-80
2021/08/21 02:55:29;;;;;;;11.90;5.03;;;;;;;9.73;100.00;100877.34;4958002;29;20387;-80
2021/08/21 02:57:54;;;;;;;15.05;5.90;;;;;;;9.75;100.00;100880.78;4957016;29;20019;-80
2021/08/21 03:00:20;;;;;;;8.95;4.43;;;;;;;9.68;100.00;100882.59;4958835;28;20027;-80
2021/08/21 03:02:45;;;;;;;11.82;4.30;;;;;;;9.70;100.00;100878.25;4957744;29;20031;-80
2021/08/21 03:05:11;;;;;;;8.77;4.60;;;;;;;9.73;100.00;100885.13;4958918;28;20059;-80
2021/08/21 03:07:36;;;;;;;7.80;4.10;;;;;;;9.63;100.00;100881.75;4956795;29;20038;-80
2021/08/21 03:10:03;;;;;;;13.02;4.15;;;;;;;9.62;100.00;100885.22;4958887;28;20086;-80
2021/08/21 03:12:29;;;;;;;7.82;3.85;;;;;;;9.57;100.00;100882.66;4957191;28;20030;-80
2021/08/21 03:14:55;;;;;;;7.35;3.33;;;;;;;9.54;100.00;100893.06;4957273;29;20023;-80
2021/08/21 03:17:20;;;;;;;7.88;4.40;;;;;;;9.61;100.00;100897.31;4957329;29;20039;-80
2021/08/21 03:19:45;;;;;;;8.02;3.88;;;;;;;9.57;100.00;100893.03;4957107;29;20031;-80
2021/08/21 03:22:10;;;;;;;7.82;3.92;;;;;;;9.65;100.00;100899.00;4957064;28;20027;-80
2021/08/21 03:24:36;;;;;;;11.10;4.00;;;;;;;9.74;100.00;100898.06;4957032;29;20150;-80
2021/08/21 03:27:01;;;;;;;9.93;4.05;;;;;;;9.77;100.00;100900.63;4957498;29;20399;-80
2021/08/21 03:29:26;;;;;;;9.27;3.67;;;;;;;9.90;100.00;100899.63;4958160;28;20031;-80
2021/08/21 03:31:51;;;;;;;9.52;3.85;;;;;;;9.90;100.00;100902.22;4957894;28;20522;-80
2021/08/21 03:34:17;;;;;;;13.00;4.07;;;;;;;10.07;100.00;100901.22;4958476;28;20039;-80
2021/08/21 03:36:42;;;;;;;18.65;4.53;;;;;;;10.20;100.00;100899.34;4957068;29;20484;-80
2021/08/21 03:39:07;;;;;;;9.63;4.10;;;;;;;10.18;100.00;100899.34;4958742;28;20528;-80
2021/08/21 03:41:32;;;;;;;10.98;3.63;;;;;;;10.16;100.00;100906.28;4957765;28;20121;-80
2021/08/21 03:43:58;;;;;;;11.50;4.00;;;;;;;10.25;100.00;100901.00;4956880;29;20038;-80
2021/08/21 03:46:23;;;;;;;9.48;3.50;;;;;;;10.29;100.00;100901.84;4957516;29;20057;-80
2021/08/21 03:48:48;;;;;;;8.30;3.83;;;;;;;10.29;100.00;100904.44;4957025;28;20463;-80
2021/08/21 03:51:14;;;;;;;8.88;4.10;;;;;;;10.29;100.00;100912.22;4957398;28;20027;-80
2021/08/21 03:53:39;;;;;;;10.45;4.07;;;;;;;10.32;100.00;100909.59;4957090;29;20400;-80
2021/08/21 03:56:04;;;;;;;15.43;5.30;;;;;;;10.36;100.00;100909.53;4958864;28;20051;-80
2021/08/21 03:58:29;;;;;;;10.55;5.15;;;;;;;10.39;100.00;100905.19;4958396;28;20488;-80
2021/08/21 04:00:55;;;;;;;9.38;5.00;;;;;;;10.39;100.00;100911.22;4956982;28;20031;-80
2021/08/21 04:03:20;;;;;;;11.95;5.53;;;;;;;10.43;100.00;100906.88;4956589;29;20028;-80
2021/08/21 04:05:45;;;;;;;12.52;4.35;;;;;;;10.43;100.00;100906.88;4957555;28;20412;-80
2021/08/21 04:08:10;;;;;;;9.98;5.05;;;;;;;10.41;100.00;100900.88;4960748;29;20039;-80
2021/08/21 04:10:38;;;;;;;10.60;5.20;;;;;;;10.41;100.00;100912.09;4960567;28;20030;-80
2021/08/21 04:13:03;;;;;;;11.75;4.72;;;;;;;10.45;100.00;100905.13;4961032;28;20074;-80
2021/08/21 04:15:29;;;;;;;10.50;4.63;;;;;;;10.47;100.00;100908.56;4961969;28;20027;-80
2021/08/21 04:17:54;;;;;;;8.88;4.13;;;;;;;10.51;100.00;100910.22;4960408;29;20046;-80
2021/08/21 04:20:19;;;;;;;14.63;6.30;;;;;;;10.51;100.00;100907.66;4961870;28;20417;-80
2021/08/21 04:22:45;;;;;;;11.00;5.30;;;;;;;10.50;100.00;100900.72;4959597;29;20023;-80
2021/08/21 04:25:10;;;;;;;9.98;4.78;;;;;;;10.53;100.00;100900.69;4962230;28;20439;-80
2021/08/21 04:27:36;;;;;;;11.18;4.75;;;;;;;10.57;100.00;100902.38;4959778;29;20034;-80
2021/08/21 04:30:01;;;;;;;8.98;4.93;;;;;;;10.58;100.00;100906.69;4959496;29;20035;-80
2021/08/21 04:32:26;;;;;;;10.52;5.05;;;;;;;10.60;100.00;100903.19;4959869;28;20019;-80
2021/08/21 04:34:52;;;;;;;11.27;4.72;;;;;;;10.64;100.00;100900.56;4960261;28;20086;-80
2021/08/21 04:37:17;;;;;;;13.90;6.13;;;;;;;10.73;100.00;100898.69;4960275;29;20079;-80
2021/08/21 04:39:43;;;;;;;12.48;5.53;;;;;;;10.79;100.00;100901.22;4960709;28;20019;-80
2021/08/21 04:42:08;;;;;;;10.52;5.93;;;;;;;10.86;100.00;100904.56;4960491;28;20019;-80
2021/08/21 04:44:33;;;;;;;9.40;5.68;;;;;;;10.84;100.00;100906.34;4960204;28;20023;-80
2021/08/21 04:46:59;;;;;;;11.70;4.68;;;;;;;10.88;100.00;100901.97;4962059;28;20035;-80
2021/08/21 04:49:24;;;;;;;11.18;5.82;;;;;;;10.96;100.00;100897.50;4958775;29;20087;-80
2021/08/21 04:51:49;;;;;;;11.80;5.75;;;;;;;11.02;100.00;100902.63;4959708;28;20496;-80
2021/08/21 04:54:14;;;;;;;10.48;5.20;;;;;;;11.16;100.00;100905.03;4958516;29;20114;-80
2021/08/21 04:56:40;;;;;;;10.43;4.75;;;;;;;11.31;100.00;100909.97;4959393;29;20039;-80
2021/08/21 04:59:05;;;;;;;8.52;5.15;;;;;;;11.45;100.00;100909.75;4958715;28;20038;-80
2021/08/21 05:01:30;;;;;;;8.27;4.57;;;;;;;11.49;100.00;100916.63;4981132;23;20544;-78
2021/08/21 05:03:56;;;;;;;9.40;4.40;;;;;;;11.48;100.00;100918.38;4957548;29;20066;-78
2021/08/21 05:06:21;;;;;;;10.77;4.80;;;;;;;11.51;100.00;100917.44;4956274;29;20480;-78
2021/08/21 05:08:46;;;;;;;14.68;5.30;;;;;;;11.60;100.00;100927.69;4956367;29;20030;-78
2021/08/21 05:11:11;;;;;;;9.77;4.68;;;;;;;11.60;100.00;100917.28;4957465;28;20042;-78
2021/08/21 05:13:37;;;;;;;11.60;4.07;;;;;;;11.68;100.00;100924.97;4955866;29;20476;-78
2021/08/21 05:16:02;;;;;;;14.20;5.25;;;;;;;11.77;100.00;100924.81;4957340;28;20020;-79
2021/08/21 05:18:52;;;;;;;8.98;4.50;;;;;;;11.92;100.00;100923.72;4955865;28;20564;-78
2021/08/21 05:21:14;;;;;;;8.00;4.32;;;;;;;11.97;100.00;100937.47;4957971;28;20035;-79
2021/08/21 05:23:40;;;;;;;11.20;3.97;;;;;;;12.11;100.00;100939.84;4958416;28;20487;-79
2021/08/21 05:26:06;;;;;;;9.30;4.53;;;;;;;12.12;100.00;100939.81;4958114;28;20440;-79
2021/08/21 05:28:31;;;;;;;9.60;4.60;;;;;;;12.36;100.00;100950.63;4956598;29;20035;-79
2021/08/21 05:30:58;;;;;;;14.35;5.60;;;;;;;12.54;100.00;100947.69;4957709;28;20027;-79
2021/08/21 05:33:24;;;;;;;9.07;4.57;;;;;;;12.66;100.00;100950.03;4957307;28;20082;-79
2021/08/21 05:35:49;;;;;;;10.07;4.80;;;;;;;12.72;100.00;100943.00;4957529;28;20472;-79
2021/08/21 05:38:15;;;;;;;10.77;5.15;;;;;;;12.76;100.00;100947.25;4956912;28;20031;-79
2021/08/21 05:40:40;;;;;;;10.57;4.97;;;;;;;12.87;100.00;100937.47;4957149;28;20050;-79
2021/08/21 05:43:06;;;;;;;8.93;4.65;;;;;;;12.96;100.00;100942.47;4957537;28;20460;-79
2021/08/21 05:45:31;;;;;;;11.05;4.85;;;;;;;13.11;100.00;100936.03;4957685;28;20033;-79
2021/08/21 05:47:57;;;;;;;10.68;4.53;;;;;;;13.35;100.00;100940.72;4957060;28;20120;-79
2021/08/21 05:50:23;;;;;;;7.78;4.20;;;;;;;13.88;100.00;100947.25;4956427;29;20377;-79
2021/08/21 05:52:49;;;;;;;8.73;4.45;;;;;;;13.87;100.00;100949.00;4955916;28;20023;-79
2021/08/21 05:55:14;;;;;;;5.85;3.15;;;;;;;13.58;100.00;100942.78;4955713;28;20038;-79
2021/08/21 05:57:40;;;;;;;9.77;3.03;;;;;;;13.74;100.00;100940.66;4957227;28;20027;-79
2021/08/21 06:00:06;;;;;;;6.53;2.38;;;;;;;13.51;100.00;100950.78;4957629;28;20034;-79
2021/08/21 06:02:32;;;;;;;6.40;2.50;;;;;;;13.37;100.00;100947.66;4955994;28;20027;-79
2021/08/21 06:04:57;;;;;;;6.00;2.60;;;;;;;13.47;100.00;100952.59;4956067;29;20022;-79
2021/08/21 06:07:22;;;;;;;4.88;2.30;;;;;;;13.56;100.00;100947.16;4957391;28;20027;-79
2021/08/21 06:09:48;;;;;;;5.82;2.17;;;;;;;13.47;100.00;100949.16;4957739;28;20535;-79
2021/08/21 06:12:13;;;;;;;6.53;2.03;;;;;;;13.50;100.00;100949.06;4957717;28;20023;-79
2021/08/21 06:14:39;;;;;;;5.35;2.13;;;;;;;13.49;100.00;100948.22;4957244;28;20050;-79
2021/08/21 06:17:05;;;;;;;5.40;1.98;;;;;;;13.62;100.00;100951.38;4955870;29;20030;-79
2021/08/21 06:19:30;;;;;;;6.45;2.20;;;;;;;13.60;100.00;100945.34;4955837;29;20488;-79
2021/08/21 06:21:56;;;;;;;7.28;2.42;;;;;;;13.62;100.00;100960.97;4957684;28;20038;-79
2021/08/21 06:24:21;;;;;;;6.90;2.42;;;;;;;13.58;100.00;100958.44;4957151;28;20090;-79
2021/08/21 06:26:46;;;;;;;9.38;2.65;;;;;;;13.60;100.00;100960.97;4956141;29;20023;-79
2021/08/21 06:29:11;;;;;;;5.72;2.63;;;;;;;13.75;100.00;100964.97;4955297;28;20031;-79
2021/08/21 06:31:37;;;;;;;7.45;2.58;;;;;;;13.78;100.00;100967.50;4955733;28;20029;-79
2021/08/21 06:34:02;;;;;;;6.22;2.58;;;;;;;13.75;100.00;100970.19;4957378;28;20024;-79
2021/08/21 06:36:27;;;;;;;9.32;2.60;;;;;;;13.92;100.00;100962.81;4956632;29;20194;-79
2021/08/21 06:38:52;;;;;;;7.85;2.60;;;;;;;13.75;100.00;100973.63;4956533;28;20027;-79
2021/08/21 06:41:18;;;;;;;6.72;3.05;;;;;;;13.71;100.00;100976.38;4956497;28;20031;-79
2021/08/21 06:43:43;;;;;;;4.63;2.33;;;;;;;13.90;100.00;100975.00;4954952;29;20498;-79
2021/08/21 06:46:08;;;;;;;8.25;2.67;;;;;;;13.89;100.00;100977.69;4955571;29;20051;-79
2021/08/21 06:48:34;;;;;;;8.93;3.00;;;;;;;13.95;100.00;100978.38;4956563;28;20062;-79
2021/08/21 06:51:00;;;;;;;6.88;2.50;;;;;;;14.05;100.00;100974.63;4954985;28;20499;-79
2021/08/21 06:53:26;;;;;;;10.13;2.40;;;;;;;13.90;100.00;100971.56;4954954;29;20043;-79
2021/08/21 06:55:51;;;;;;;7.43;2.72;;;;;;;13.93;100.00;100974.09;4955865;28;20501;-79
2021/08/21 06:58:19;;;;;;;6.70;2.75;;;;;;;14.02;100.00;100973.84;4954855;29;20023;-79
2021/08/21 07:00:44;;;;;;;10.48;3.08;;;;;;;14.06;100.00;100965.03;4955078;28;20114;-79
2021/08/21 07:03:10;;;;;;;8.10;2.80;;;;;;;14.11;100.00;100968.41;4956558;28;20087;-79
2021/08/21 07:05:36;;;;;;;9.05;3.08;;;;;;;14.38;100.00;100971.16;4956120;28;20027;-79
2021/08/21 07:08:01;;;;;;;8.18;2.58;;;;;;;14.30;100.00;100971.38;4954847;29;20023;-79
2021/08/21 07:10:26;;;;;;;7.70;2.00;;;;;;;14.09;100.00;100974.53;4956592;28;20166;-79
2021/08/21 07:12:51;;;;;;;5.40;2.20;;;;;;;14.02;100.00;100972.09;4954466;28;20388;-79
2021/08/21 07:15:17;;;;;;;6.10;1.70;;;;;;;14.02;100.00;100969.47;4955871;28;20034;-79
2021/08/21 07:17:42;;;;;;;6.93;1.77;;;;;;;13.95;100.00;100975.75;4955930;28;20392;-79
2021/08/21 07:20:07;;;;;;;7.68;1.90;;;;;;;13.88;100.00;100978.53;4955638;28;20400;-79
2021/08/21 07:22:33;;;;;;;6.10;2.17;;;;;;;14.13;100.00;100982.25;4955452;28;20031;-79
2021/08/21 07:24:58;;;;;;;8.20;2.30;;;;;;;14.07;100.00;100978.94;4955414;28;20561;-79
2021/08/21 07:27:23;;;;;;;5.15;2.08;;;;;;;14.13;100.00;100984.00;4955358;28;20039;-79
2021/08/21 07:29:49;;;;;;;6.57;2.88;;;;;;;14.14;100.00;100981.34;4954349;29;20500;-79
2021/08/21 07:32:14;;;;;;;9.18;2.35;;;;;;;14.40;100.00;100985.00;4954417;28;20031;-79
2021/08/21 07:34:40;;;;;;;7.60;2.47;;;;;;;14.24;100.00;100981.97;4954437;29;20114;-79
2021/08/21 07:37:06;;;;;;;5.20;2.20;;;;;;;14.41;100.00;100987.59;4955549;28;20052;-79
2021/08/21 07:39:31;;;;;;;7.07;2.42;;;;;;;14.47;100.00;100987.44;4955565;28;20391;-78
2021/08/21 07:41:56;;;;;;;5.60;2.55;;;;;;;14.54;100.00;100982.94;4955749;28;20078;-79
2021/08/21 07:44:22;;;;;;;4.45;1.48;;;;;;;14.60;100.00;100982.75;4959314;28;20020;-79
2021/08/21 07:46:47;;;;;;;10.00;2.47;;;;;;;14.89;100.00;100981.06;4959510;28;20027;-79
2021/08/21 07:49:12;;;;;;;7.85;2.10;;;;;;;15.13;100.00;100982.09;4959851;28;20027;-79
2021/08/21 07:51:38;;;;;;;5.13;1.90;;;;;;;15.14;100.00;100984.63;4959262;28;20106;-79
2021/08/21 07:54:03;;;;;;;5.78;2.13;;;;;;;15.06;100.00;100984.03;4959078;28;20038;-79
2021/08/21 07:56:29;;;;;;;5.10;1.60;;;;;;;15.18;100.00;100982.81;4957908;28;20117;-79
2021/08/21 07:58:54;;;;;;;5.53;1.73;;;;;;;15.09;100.00;100988.31;4957757;29;20072;-79
2021/08/21 08:01:19;;;;;;;5.97;1.85;;;;;;;15.41;100.00;100992.53;4959409;28;20411;-79
2021/08/21 08:03:45;;;;;;;3.75;1.50;;;;;;;15.55;100.00;100986.91;4958254;29;20031;-79
2021/08/21 08:06:10;;;;;;;4.55;1.55;;;;;;;15.24;100.00;100987.84;4957798;29;20399;-79
2021/08/21 08:08:35;;;;;;;5.05;1.40;;;;;;;15.24;100.00;100989.59;4958777;29;20035;-78
2021/08/21 08:11:01;;;;;;;7.10;1.80;;;;;;;15.37;100.00;100990.94;4957933;28;20495;-78
2021/08/21 08:13:26;;;;;;;6.20;1.95;;;;;;;15.46;100.00;100993.25;4958404;28;20027;-78
2021/08/21 08:15:51;;;;;;;3.67;1.45;;;;;;;15.77;100.00;100993.16;4958388;29;20086;-79
2021/08/21 08:18:17;;;;;;;7.95;2.00;;;;;;;15.77;100.00;100995.78;4957337;29;20027;-79
2021/08/21 08:20:42;;;;;;;5.90;2.00;;;;;;;15.50;100.00;100997.47;4957224;28;20472;-79
2021/08/21 08:23:08;;;;;;;7.15;2.20;;;;;;;15.67;100.00;100991.75;4958283;28;20027;-78
2021/08/21 08:25:33;;;;;;;6.03;2.17;;;;;;;15.77;100.00;100987.09;4958231;28;20027;-78
2021/08/21 08:27:59;;;;;;;6.57;2.10;;;;;;;16.13;100.00;100989.34;4958159;28;20039;-79
2021/08/21 08:30:24;;;;;;;6.53;2.13;;;;;;;16.05;100.00;100987.84;4958448;28;20027;-79
2021/08/21 08:32:50;;;;;;;5.18;2.00;;;;;;;16.01;100.00;100994.13;4957198;28;20019;-79
2021/08/21 08:35:15;;;;;;;5.80;2.30;;;;;;;16.03;100.00;100991.44;4958331;28;20062;-79
2021/08/21 08:37:41;;;;;;;7.53;2.30;;;;;;;16.43;100.00;100987.44;4958103;28;20062;-79
2021/08/21 08:40:09;;;;;;;8.90;2.50;;;;;;;16.21;100.00;100992.56;4956667;29;20023;-79
2021/08/21 08:42:38;;;;;;;8.25;2.72;;;;;;;16.49;100.00;100989.81;4957909;28;20098;-79
2021/08/21 08:45:04;;;;;;;6.85;2.65;;;;;;;16.39;100.00;100988.47;4956570;29;20072;-79
2021/08/21 08:47:29;;;;;;;7.97;2.72;;;;;;;16.33;100.00;101000.84;4956684;29;20039;-79
2021/08/21 08:50:02;;;;;;;4.75;2.25;;;;;;;16.22;100.00;101005.59;4958112;28;20027;-79
2021/08/21 08:52:27;;;;;;;7.13;2.50;;;;;;;16.50;100.00;101002.88;4956219;28;20023;-79
2021/08/21 08:54:53;;;;;;;4.82;2.20;;;;;;;16.67;100.00;101007.50;4956754;29;20078;-79
2021/08/21 08:57:33;;;;;;;4.95;2.08;;;;;;;16.61;100.00;101009.50;4956526;29;20098;-79
2021/08/21 08:59:59;;;;;;;7.38;2.60;;;;;;;16.58;100.00;101011.28;4958709;28;20027;-79
2021/08/21 09:02:37;;;;;;;7.60;2.10;;;;;;;16.63;100.00;101008.53;4958018;28;20042;-79
2021/08/21 09:05:05;;;;;;;8.27;2.45;;;;;;;16.55;100.00;101008.78;4957824;28;20428;-79
2021/08/21 09:07:40;;;;;;;5.10;1.90;;;;;;;16.63;100.00;101013.75;4957828;28;20023;-79
2021/08/21 09:10:25;;;;;;;7.07;1.90;;;;;;;16.69;100.00;101012.69;4958017;28;20027;-79
2021/08/21 09:13:02;;;;;;;4.97;1.90;;;;;;;16.45;100.00;101017.03;4956651;28;20058;-79
2021/08/21 09:15:30;;;;;;;6.97;2.20;;;;;;;16.52;100.00;101013.28;4957588;28;20472;-79
2021/08/21 09:18:23;;;;;;;5.32;1.92;;;;;;;16.54;100.00;101004.47;4957273;28;20114;-79
2021/08/21 09:20:48;;;;;;;4.85;1.92;;;;;;;16.54;100.00;101011.47;4956313;28;20039;-79
2021/08/21 09:23:33;;;;;;;5.43;2.43;;;;;;;16.74;100.00;101011.59;4956503;29;20510;-79
2021/08/21 09:26:13;;;;;;;5.93;2.10;;;;;;;16.93;100.00;101010.94;4955676;29;20270;-78
2021/08/21 09:28:41;;;;;;;4.78;1.75;;;;;;;16.72;100.00;101016.06;4955817;29;20027;-79
2021/08/21 09:31:15;;;;;;;5.88;2.10;;;;;;;16.54;100.00;101020.19;4956955;28;20024;-79
2021/08/21 09:34:00;;;;;;;;;;;;;;;16.90;100.00;101006.69;4956215;29;20034;-78
2021/08/21 09:36:38;;;;;;;5.45;1.85;;;;;;;17.39;100.00;101010.03;4955384;29;19916;-79
2021/08/21 09:39:06;;;;;;;5.93;2.30;;;;;;;17.69;100.00;101013.22;4957537;28;20480;-79
2021/08/21 09:41:57;;;;;;;5.28;2.35;;;;;;;17.51;100.00;101013.94;4956664;28;20066;-79
2021/08/21 09:44:39;;;;;;;8.02;2.10;;;;;;;17.51;100.00;101013.09;4955483;29;20032;-79
2021/08/21 09:47:29;;;;;;;5.68;2.45;;;;;;;17.51;100.00;101013.09;4956979;28;20111;-79
2021/08/21 09:50:15;;;;;;;5.35;2.20;;;;;;;17.39;100.00;101003.94;4957134;28;20404;-79
2021/08/21 09:52:42;;;;;;;5.25;2.00;;;;;;;17.17;100.00;101002.16;4955764;28;20481;-79
2021/08/21 09:55:11;;;;;;;4.55;1.90;;;;;;;17.09;100.00;101006.84;4954820;29;20038;-79
2021/08/21 09:57:37;;;;;;;4.60;1.90;;;;;;;17.20;100.00;101011.66;4954959;29;20033;-79
2021/08/21 10:00:04;;;;;;;5.60;2.10;;;;;;;17.44;100.00;101008.09;4954941;29;20023;-79
2021/08/21 10:02:31;;;;;;;4.70;1.80;;;;;;;17.49;100.00;101005.31;4956039;28;20038;-79
2021/08/21 10:04:57;;;;;;;6.28;1.55;;;;;;;17.68;100.00;101011.50;4954151;28;20369;-79
2021/08/21 10:07:27;;;;;;;5.57;1.42;;;;;;;17.94;100.00;101005.22;4954704;29;20077;-79
2021/08/21 10:09:53;;;;;;;3.88;1.50;;;;;;;17.95;100.00;101003.47;4954776;29;20023;-79
2021/08/21 10:12:22;;;;;;;4.97;1.60;;;;;;;17.93;100.00;101010.53;4954697;28;20531;-79
2021/08/21 10:14:49;;;;;;;4.60;1.45;;;;;;;18.13;100.00;101007.06;4954987;29;20114;-79
2021/08/21 10:17:16;;;;;;;3.70;1.20;;;;;;;18.33;100.00;100998.34;4956097;28;20114;-79
2021/08/21 10:19:43;;;;;;;3.33;1.27;;;;;;;18.30;100.00;101001.09;4955982;28;20039;-79
2021/08/21 10:22:09;;;;;;;3.83;1.15;;;;;;;19.47;91.47;100991.41;4954631;28;20096;-79
2021/08/21 10:24:36;;;;;;;5.25;1.20;;;;;;;19.27;91.71;100984.44;4954635;29;20034;-79
2021/08/21 10:27:26;;;;;;;3.70;1.30;;;;;;;19.19;97.78;100992.72;4956034;28;20027;-79
2021/08/21 10:30:20;;;;;;;4.15;1.50;;;;;;;18.96;97.14;100991.13;4954607;29;20027;-79
2021/08/21 10:32:58;;;;;;;3.67;1.25;;;;;;;19.17;99.04;100991.06;4954963;28;20404;-79
2021/08/21 10:35:39;;;;;;;4.47;1.17;;;;;;;19.27;96.00;100987.97;4954854;29;20035;-79
2021/08/21 10:38:35;;;;;;;4.05;1.30;;;;;;;18.67;98.45;100997.72;4955802;28;20034;-79
2021/08/21 10:41:12;;;;;;;4.82;1.50;;;;;;;19.72;89.83;100994.56;4955793;28;20031;-79
2021/08/21 10:43:41;;;;;;;4.38;1.48;;;;;;;20.13;89.49;100993.41;4954633;29;20082;-79
2021/08/21 10:46:06;;;;;;;4.40;0.90;;;;;;;18.93;93.68;100996.53;4954326;29;20034;-79
2021/08/21 10:48:35;;;;;;;3.42;1.13;;;;;;;19.71;88.63;100992.88;4954676;29;20027;-79
2021/08/21 10:51:04;;;;;;;3.33;1.15;;;;;;;19.46;92.24;101002.84;4954218;28;20035;-79
2021/08/21 10:53:31;;;;;;;3.05;1.15;;;;;;;18.54;90.42;101004.44;4954646;29;20496;-79
2021/08/21 10:55:58;;;;;;;6.35;1.27;;;;;;;18.53;94.54;101002.72;4956396;28;20503;-79
2021/08/21 10:58:28;;;;;;;3.95;1.23;;;;;;;19.11;94.18;100996.63;4957143;28;20023;-79
2021/08/21 11:03:22;;;;;;;4.30;1.30;;;;;;;20.42;85.05;100997.19;4979718;22;20055;-81
2021/08/21 11:06:05;;;;;;;3.25;1.13;;;;;;;19.66;90.48;100999.28;4955162;28;20039;-80
2021/08/21 11:08:32;;;;;;;3.72;1.30;;;;;;;18.79;94.24;100997.19;4954669;29;20023;-80
2021/08/21 11:11:10;;;;;;;2.67;1.00;;;;;;;18.78;95.55;100999.88;4955366;28;20034;-80
2021/08/21 11:14:06;;;;;;;2.55;0.98;;;;;;;18.87;94.43;100996.81;4953932;29;20440;-81
2021/08/21 11:16:54;;;;;;;3.10;1.10;;;;;;;19.32;95.74;100991.19;4956495;28;20031;-80
2021/08/21 11:19:22;;;;;;;3.63;0.90;;;;;;;18.49;94.89;100988.88;4957736;29;20115;-80
2021/08/21 11:21:49;;;;;;;3.05;1.20;;;;;;;18.69;96.93;100989.75;4960281;28;20090;-81